航空気象通報

ウインドサーファーのための航空気象通報による風予報です。

10/31-11/1の航空気象通報(国内、海外)

2009年10月31日 19時05分02秒 | TAF
羽田空港
TAF RJTT 310838Z 3109/0112 04008KT 9000 FEW020 SCT025
TEMPO 3118/3121 4000 BR
BECMG 3121/3124 20015KT
TEMPO 0103/0109 21022G33KT
日本時間31日18時-1日06時:040度から8ノットの風
06-09時:風が変化
09-21時:200度から15ノットの風
但し、12-18時の間:ときどき、200度から22ノット、突風33ノット


富士山静岡空港
TAF RJNS 310836Z 3109/0112 34006KT 9999 FEW030
BECMG 3121/3124 24012KT
TEMPO 0103/0109 24016G26KT
TEMPO 0109/0112 4000 SHRA BR FEW004 BKN008
日本時間31日18時-1日06時:340度から6ノットの風
06-09時:風が変化
09-21時:240度から12ノットの風
但し、1日12-18時の間:ときどき、240度から16ノット、突風26ノット

但し、1日18-21時の間:ときどき、

那覇空港
TAF ROAH 310837Z 3109/0112 11008KT 9999 FEW015 BKN025
BECMG 0103/0106 20011KT
BECMG 0109/0112 01012KT
TEMPO 0109/0112 4000 SHRA
日本時間31日18時-1日12時:110度から8ノットの風
12-15時:風が変化
15-18時:200度から11ノットの風
18-21時:風が変化
21時:010度から12ノットの風

但し、1日18-21時の間:ときどき、

マウイのカフルイ空港
PHOG 311140Z 3112/0112 05008KT P6SM SCT050
FM312000 05015G22KT P6SM FEW035 SCT060
FM010400 04010KT P6SM SCT050
ハワイ時間31日02-10時:050度から8ノットの風
10-18時:050度から15ノット、突風22ノット
18時-1日02時:040度から10ノットの風


サイパン空港
PGSN 311138Z 3112/0112 09010KT P6SM VCSH SCT018
FM312300 09012KT P6SM VCSH SCT020
マリアナ時間31日22時-1日09時:090度から10ノットの風
09-22時:090度から12ノットの風

コメント
この記事をはてなブックマークに追加

10/30-10/31の航空気象通報(国内、海外)

2009年10月31日 00時00分21秒 | TAF
羽田空港
TAF RJTT 300836Z 3009/3112 10006KT 9999 FEW030
BECMG 3012/3014 36004KT
BECMG 3018/3021 03015KT
日本時間30日18-21時:100度から6ノットの風
21-23時:風が変化
23時-31日03時:360度から4ノットの風
03-06時:風が変化
06-21時:030度から15ノットの風


富士山静岡空港
TAF RJNS 300837Z 3009/3112 34006KT 9999 FEW030
BECMG 3021/3024 07008KT
日本時間30日18時-31日06時:340度から6ノットの風
06-09時:風が変化
09-21時:070度から8ノットの風


那覇空港
TAF ROAH 300840Z 3009/3112 07010KT 9999 FEW020 BKN035
BECMG 3100/3103 11011KT
日本時間30日18時-31日09時:070度から10ノットの風
08-12時:風が変化
12-21時:110度から11ノットの風


マウイのカフルイ空港
PHOG 301139Z 3012/3112 00000KT P6SM SKC
FM301800 04010KT P6SM FEW025 SCT050
FM302100 04015G22KT P6SM FEW035 SCT050
FM310500 04012KT P6SM SCT050
ハワイ時間30日02-08時:無風
11-19時:020度から11ノットの風
08-11時:040度から10ノットの風
11-19時:040度から15ノット、突風22ノット
19時-31日02時:040度から12ノットの風


サイパン空港
PGSN 301125Z 3012/3112 09013KT P6SM VCSH SCT015 SCT050
マリアナ時間30日22時-31日22時:090度から13ノットの風
コメント
この記事をはてなブックマークに追加

10/29-10/30の航空気象通報(国内、海外)

2009年10月29日 23時28分00秒 | TAF
羽田空港
TAF RJTT 290839Z 2909/3012 10006KT 7000 FEW020 SCT040
BECMG 2913/2915 35004KT
TEMPO 2918/2921 4000 BR
BECMG 3000/3003 10005KT
日本時間29日18-22時:100度から6ノットの風
22-24時:風が変化
30日00-09時:350度から4ノットの風
09-12時:風が変化
12-21時:100度から5ノットの風


富士山静岡空港
TAF RJNS 290844Z 2909/3012 34006KT 9999 FEW015 SCT025
TEMPO 2915/2921 FEW006 BKN009
BECMG 3000/3003 16006KT
BECMG 3009/3012 34004KT
日本時間29日18時-30日09時:340度から6ノットの風
09-12時:風が変化
12-18時:160度から6ノットの風
18-21時:風が変化
21時:340度から4ノットの風

但し、30日00-06時の間:一時、

那覇空港
TAF ROAH 290837Z 2909/3012 07010KT 9999 FEW025 SCT045
日本時間28日18時-29日21時:070度から10ノットの風


マウイのカフルイ空港
PHOG 291120Z 2912/3012 15005KT P6SM FEW045
FM292100 02011KT P6SM FEW035 SCT050
FM300500 05007KT P6SM FEW045
ハワイ時間29日02-11時:150度から5ノットの風
11-19時:020度から11ノットの風
19時-30日02時:050度から7ノットの風


サイパン空港
PGSN 291129Z 2912/3012 08012KT P6SM VCSH SCT015 SCT050 BKN100
TEMPO 2912/2915 09013G20KT 5SM -SHRA SCT018 SCT100
マリアナ時間29日22時-30日22時:080度から12ノットの風
但し、29日22時-30日01時の間:ときどき、090度から13ノット、突風20ノット

但し、29日22時-30日01時の間:ときどき、
コメント
この記事をはてなブックマークに追加

10/28-10/29の航空気象通報(国内、海外)

2009年10月28日 22時24分41秒 | TAF
羽田空港
TAF RJTT 280836Z 2809/2912 13010KT 9999 FEW030
BECMG 2816/2818 36004KT
TEMPO 2818/2821 4000 BR
BECMG 2903/2906 12008KT
日本時間28日18時-29日01時:130度から10ノットの風
01-12時:360度から4ノットの風
12-15時:風が変化
15-21時:120度から8ノットの風


富士山静岡空港
TAF RJNS 280839Z 2809/2912 16005KT 9999 FEW030
BECMG 2809/2811 34004KT
BECMG 2900/2903 16006KT
BECMG 2909/2912 34004KT
日本時間28日18時:160度から5ノットの風
18-20時:風が変化
20時-29日09時:340度から4ノットの風
09-12時:風が変化
12-18時:160度から6ノットの風
18-21時:風が変化
21時:340度から4ノットの風


那覇空港
TAF ROAH 280842Z 2809/2912 08008KT 9999 FEW035
日本時間28日18時-29日21時:080度から8ノットの風


マウイのカフルイ空港
PHOG 281120Z 2812/2912 15006KT P6SM SCT050
FM282100 01011KT P6SM FEW040 SCT060
FM290500 VRB06KT P6SM FEW050
FM290800 15006KT P6SM FEW045
ハワイ時間28日02-11時:150度から6ノットの風
11-19時:010度から11ノットの風
19-22時:風向不定6ノットの風
22時-29日02時:150度から6ノットの風


サイパン空港
PGSN 281136Z 2812/2912 09010KT P6SM VCSH FEW015 SCT050 BKN120
TEMPO 2812/2814 4SM -SHRA SCT015CB BKN030 OVC120
マリアナ時間28日22時-29日22時:090度から10ノットの風

但し、28日22-24時の間:ときどき、
コメント
この記事をはてなブックマークに追加

10/27-10/28の航空気象通報(国内、海外)

2009年10月27日 22時53分23秒 | TAF
羽田空港
TAF RJTT 270837Z 2709/2812 35014KT 9999 FEW030
BECMG 2800/2803 10008KT
日本時間27日18時-28日09時:350度から14ノットの風
09-12時:風が変化
12-21時:100度から8ノットの風


富士山静岡空港
TAF RJNS 270839Z 2709/2812 30012KT 9999 FEW030
TEMPO 2709/2711 TS SCT020 FEW030CB
BECMG 2800/2803 12006KT
日本時間27日18時-28日09時:300度から12ノットの風
09-12時:風が変化
12-21時:120度から6ノットの風

但し、27日18-20時の間:ときどき、

那覇空港
TAF ROAH 270839Z 2709/2812 06010KT 9999 FEW030
日本時間27日18時-28日21時:060度から10ノットの風


マウイのカフルイ空港
PHOG 271135Z 2712/2812 09006KT P6SM SCT050
FM272000 07012KT P6SM SCT050
FM280400 10006KT P6SM FEW050
ハワイ時間27日02-10時:090度から6ノットの風
10-18時:070度から12ノットの風
18時-28日02時:100度から6ノットの風


サイパン空港
PHOG 271135Z 2712/2812 09006KT P6SM SCT050
FM272000 07012KT P6SM SCT050
FM280400 10006KT P6SM FEW050
マリアナ時間27日22時-28日06時:090度から6ノットの風
06-14時:070度から12ノットの風
14-22時:100度から6ノットの風

コメント
この記事をはてなブックマークに追加